sensor_id;sensor_type;location;lat;lon;timestamp;P1;durP1;ratioP1;P2;durP2;ratioP2
73585;SDS011;61865;50.232;18.614;2023-06-14T00:01:32;17.13;;;6.53;;
73585;SDS011;61865;50.232;18.614;2023-06-14T00:03:57;10.63;;;6.55;;
73585;SDS011;61865;50.232;18.614;2023-06-14T00:06:19;12.07;;;6.47;;
73585;SDS011;61865;50.232;18.614;2023-06-14T00:08:44;13.68;;;8.32;;
73585;SDS011;61865;50.232;18.614;2023-06-14T00:11:06;13.77;;;7.57;;
73585;SDS011;61865;50.232;18.614;2023-06-14T00:13:29;18.45;;;8.90;;
73585;SDS011;61865;50.232;18.614;2023-06-14T00:15:51;17.10;;;9.13;;
73585;SDS011;61865;50.232;18.614;2023-06-14T00:18:15;14.18;;;8.70;;
73585;SDS011;61865;50.232;18.614;2023-06-14T00:20:39;12.95;;;8.45;;
73585;SDS011;61865;50.232;18.614;2023-06-14T00:23:01;12.02;;;7.68;;
73585;SDS011;61865;50.232;18.614;2023-06-14T00:25:24;16.17;;;9.68;;
73585;SDS011;61865;50.232;18.614;2023-06-14T00:27:46;15.90;;;9.48;;
73585;SDS011;61865;50.232;18.614;2023-06-14T00:30:09;15.65;;;8.90;;
73585;SDS011;61865;50.232;18.614;2023-06-14T00:32:32;12.38;;;8.05;;
73585;SDS011;61865;50.232;18.614;2023-06-14T00:34:54;15.13;;;9.25;;
73585;SDS011;61865;50.232;18.614;2023-06-14T00:37:18;18.88;;;9.85;;
73585;SDS011;61865;50.232;18.614;2023-06-14T00:39:40;17.25;;;9.85;;
73585;SDS011;61865;50.232;18.614;2023-06-14T00:42:03;17.08;;;9.95;;
73585;SDS011;61865;50.232;18.614;2023-06-14T00:44:25;17.55;;;9.98;;
73585;SDS011;61865;50.232;18.614;2023-06-14T00:46:48;25.92;;;10.35;;
73585;SDS011;61865;50.232;18.614;2023-06-14T00:49:11;17.63;;;10.43;;
73585;SDS011;61865;50.232;18.614;2023-06-14T00:51:34;19.13;;;10.77;;
73585;SDS011;61865;50.232;18.614;2023-06-14T00:53:59;14.07;;;9.63;;
73585;SDS011;61865;50.232;18.614;2023-06-14T00:56:21;15.20;;;9.07;;
73585;SDS011;61865;50.232;18.614;2023-06-14T00:58:43;16.58;;;9.38;;
73585;SDS011;61865;50.232;18.614;2023-06-14T01:01:05;16.48;;;10.57;;
73585;SDS011;61865;50.232;18.614;2023-06-14T01:03:28;19.33;;;10.43;;
73585;SDS011;61865;50.232;18.614;2023-06-14T01:05:53;16.17;;;10.00;;
73585;SDS011;61865;50.232;18.614;2023-06-14T01:08:24;15.15;;;8.82;;
73585;SDS011;61865;50.232;18.614;2023-06-14T01:10:50;11.40;;;7.82;;
73585;SDS011;61865;50.232;18.614;2023-06-14T01:13:15;14.70;;;7.97;;
73585;SDS011;61865;50.232;18.614;2023-06-14T01:15:43;12.80;;;6.50;;
73585;SDS011;61865;50.232;18.614;2023-06-14T01:18:06;12.43;;;7.65;;
73585;SDS011;61865;50.232;18.614;2023-06-14T01:20:37;10.93;;;7.00;;
73585;SDS011;61865;50.232;18.614;2023-06-14T01:23:00;7.57;;;5.90;;
73585;SDS011;61865;50.232;18.614;2023-06-14T01:25:23;16.23;;;7.07;;
73585;SDS011;61865;50.232;18.614;2023-06-14T01:27:45;5.95;;;3.53;;
73585;SDS011;61865;50.232;18.614;2023-06-14T01:30:08;14.93;;;7.78;;
73585;SDS011;61865;50.232;18.614;2023-06-14T01:32:31;12.68;;;8.65;;
73585;SDS011;61865;50.232;18.614;2023-06-14T01:34:53;31.52;;;8.50;;
73585;SDS011;61865;50.232;18.614;2023-06-14T01:37:16;20.27;;;9.70;;
73585;SDS011;61865;50.232;18.614;2023-06-14T01:39:40;16.45;;;7.38;;
73585;SDS011;61865;50.232;18.614;2023-06-14T01:42:05;15.48;;;7.05;;
73585;SDS011;61865;50.232;18.614;2023-06-14T01:44:28;12.65;;;8.00;;
73585;SDS011;61865;50.232;18.614;2023-06-14T01:46:51;10.07;;;7.45;;
73585;SDS011;61865;50.232;18.614;2023-06-14T01:49:13;11.35;;;7.22;;
73585;SDS011;61865;50.232;18.614;2023-06-14T01:51:36;14.18;;;8.32;;
73585;SDS011;61865;50.232;18.614;2023-06-14T01:53:58;13.65;;;6.65;;
73585;SDS011;61865;50.232;18.614;2023-06-14T01:56:22;21.58;;;8.82;;
73585;SDS011;61865;50.232;18.614;2023-06-14T01:58:45;14.75;;;9.25;;
73585;SDS011;61865;50.232;18.614;2023-06-14T02:01:08;13.57;;;8.05;;
73585;SDS011;61865;50.232;18.614;2023-06-14T02:03:31;10.85;;;7.22;;
73585;SDS011;61865;50.232;18.614;2023-06-14T02:05:54;64.45;;;6.88;;
73585;SDS011;61865;50.232;18.614;2023-06-14T02:08:16;283.88;;;15.63;;
73585;SDS011;61865;50.232;18.614;2023-06-14T02:10:39;14.85;;;9.15;;
73585;SDS011;61865;50.232;18.614;2023-06-14T02:13:02;16.40;;;9.80;;
73585;SDS011;61865;50.232;18.614;2023-06-14T02:15:25;14.02;;;9.35;;
73585;SDS011;61865;50.232;18.614;2023-06-14T02:17:53;15.63;;;9.38;;
73585;SDS011;61865;50.232;18.614;2023-06-14T02:20:16;13.50;;;9.80;;
73585;SDS011;61865;50.232;18.614;2023-06-14T02:22:38;15.32;;;8.88;;
73585;SDS011;61865;50.232;18.614;2023-06-14T02:25:01;14.65;;;9.77;;
73585;SDS011;61865;50.232;18.614;2023-06-14T02:27:24;32.85;;;7.63;;
73585;SDS011;61865;50.232;18.614;2023-06-14T02:29:47;13.18;;;8.75;;
73585;SDS011;61865;50.232;18.614;2023-06-14T02:32:10;46.22;;;7.72;;
73585;SDS011;61865;50.232;18.614;2023-06-14T02:34:32;7.43;;;4.65;;
73585;SDS011;61865;50.232;18.614;2023-06-14T02:36:55;13.25;;;8.32;;
73585;SDS011;61865;50.232;18.614;2023-06-14T02:39:17;7.32;;;4.22;;
73585;SDS011;61865;50.232;18.614;2023-06-14T02:41:43;24.88;;;7.47;;
73585;SDS011;61865;50.232;18.614;2023-06-14T02:44:05;86.60;;;7.97;;
73585;SDS011;61865;50.232;18.614;2023-06-14T02:46:29;50.97;;;7.55;;
73585;SDS011;61865;50.232;18.614;2023-06-14T02:48:52;10.90;;;3.17;;
73585;SDS011;61865;50.232;18.614;2023-06-14T02:51:17;10.27;;;7.03;;
73585;SDS011;61865;50.232;18.614;2023-06-14T02:53:39;9.70;;;5.88;;
73585;SDS011;61865;50.232;18.614;2023-06-14T02:56:02;16.83;;;4.15;;
73585;SDS011;61865;50.232;18.614;2023-06-14T02:58:25;10.15;;;4.70;;
73585;SDS011;61865;50.232;18.614;2023-06-14T03:00:47;14.98;;;5.00;;
73585;SDS011;61865;50.232;18.614;2023-06-14T03:03:11;81.22;;;10.15;;
73585;SDS011;61865;50.232;18.614;2023-06-14T03:05:34;15.68;;;9.30;;
73585;SDS011;61865;50.232;18.614;2023-06-14T03:07:56;18.05;;;9.23;;
73585;SDS011;61865;50.232;18.614;2023-06-14T03:10:19;16.40;;;9.55;;
73585;SDS011;61865;50.232;18.614;2023-06-14T03:12:44;16.60;;;10.43;;
73585;SDS011;61865;50.232;18.614;2023-06-14T03:15:07;15.50;;;9.75;;
73585;SDS011;61865;50.232;18.614;2023-06-14T03:17:31;17.20;;;9.85;;
73585;SDS011;61865;50.232;18.614;2023-06-14T03:19:56;15.40;;;9.88;;
73585;SDS011;61865;50.232;18.614;2023-06-14T03:22:19;14.18;;;9.85;;
73585;SDS011;61865;50.232;18.614;2023-06-14T03:24:42;15.77;;;9.00;;
73585;SDS011;61865;50.232;18.614;2023-06-14T03:27:05;14.38;;;8.82;;
73585;SDS011;61865;50.232;18.614;2023-06-14T03:29:30;15.50;;;8.98;;
73585;SDS011;61865;50.232;18.614;2023-06-14T03:31:58;16.10;;;9.75;;
73585;SDS011;61865;50.232;18.614;2023-06-14T03:34:21;14.75;;;9.75;;
73585;SDS011;61865;50.232;18.614;2023-06-14T03:36:45;16.38;;;10.23;;
73585;SDS011;61865;50.232;18.614;2023-06-14T03:39:07;15.13;;;9.27;;
73585;SDS011;61865;50.232;18.614;2023-06-14T03:41:30;21.42;;;10.43;;
73585;SDS011;61865;50.232;18.614;2023-06-14T03:43:52;16.27;;;10.23;;
73585;SDS011;61865;50.232;18.614;2023-06-14T03:46:14;19.17;;;11.88;;
73585;SDS011;61865;50.232;18.614;2023-06-14T03:48:37;17.98;;;11.93;;
73585;SDS011;61865;50.232;18.614;2023-06-14T03:51:00;18.75;;;11.63;;
73585;SDS011;61865;50.232;18.614;2023-06-14T03:53:23;20.83;;;12.43;;
73585;SDS011;61865;50.232;18.614;2023-06-14T03:55:48;21.73;;;12.75;;
73585;SDS011;61865;50.232;18.614;2023-06-14T03:58:12;21.10;;;13.98;;
73585;SDS011;61865;50.232;18.614;2023-06-14T04:00:34;19.60;;;12.88;;
73585;SDS011;61865;50.232;18.614;2023-06-14T04:02:57;23.23;;;13.68;;
73585;SDS011;61865;50.232;18.614;2023-06-14T04:05:19;27.92;;;14.32;;
73585;SDS011;61865;50.232;18.614;2023-06-14T04:07:43;26.42;;;14.55;;
73585;SDS011;61865;50.232;18.614;2023-06-14T04:10:08;26.88;;;15.38;;
73585;SDS011;61865;50.232;18.614;2023-06-14T04:12:30;25.67;;;14.90;;
73585;SDS011;61865;50.232;18.614;2023-06-14T04:14:53;26.77;;;14.98;;
73585;SDS011;61865;50.232;18.614;2023-06-14T04:17:15;22.10;;;13.48;;
73585;SDS011;61865;50.232;18.614;2023-06-14T04:19:37;29.40;;;13.82;;
73585;SDS011;61865;50.232;18.614;2023-06-14T04:22:03;27.17;;;15.65;;
73585;SDS011;61865;50.232;18.614;2023-06-14T04:24:26;23.58;;;14.15;;
73585;SDS011;61865;50.232;18.614;2023-06-14T04:26:53;29.35;;;16.35;;
73585;SDS011;61865;50.232;18.614;2023-06-14T04:29:18;34.67;;;17.33;;
73585;SDS011;61865;50.232;18.614;2023-06-14T04:31:41;29.52;;;16.02;;
73585;SDS011;61865;50.232;18.614;2023-06-14T04:34:04;32.05;;;16.50;;
73585;SDS011;61865;50.232;18.614;2023-06-14T04:36:26;39.80;;;17.58;;
73585;SDS011;61865;50.232;18.614;2023-06-14T04:38:49;35.45;;;18.73;;
73585;SDS011;61865;50.232;18.614;2023-06-14T04:41:14;29.55;;;16.48;;
73585;SDS011;61865;50.232;18.614;2023-06-14T04:43:39;36.55;;;17.02;;
73585;SDS011;61865;50.232;18.614;2023-06-14T04:46:03;28.75;;;16.75;;
73585;SDS011;61865;50.232;18.614;2023-06-14T04:48:30;32.70;;;16.02;;
73585;SDS011;61865;50.232;18.614;2023-06-14T04:50:52;31.98;;;17.67;;
73585;SDS011;61865;50.232;18.614;2023-06-14T04:53:14;31.45;;;16.95;;
73585;SDS011;61865;50.232;18.614;2023-06-14T04:55:41;30.08;;;16.15;;
73585;SDS011;61865;50.232;18.614;2023-06-14T04:58:06;33.50;;;15.32;;
73585;SDS011;61865;50.232;18.614;2023-06-14T05:00:30;27.95;;;13.10;;
73585;SDS011;61865;50.232;18.614;2023-06-14T05:02:52;26.88;;;14.90;;
73585;SDS011;61865;50.232;18.614;2023-06-14T05:05:15;27.73;;;14.00;;
73585;SDS011;61865;50.232;18.614;2023-06-14T05:07:37;21.10;;;12.82;;
73585;SDS011;61865;50.232;18.614;2023-06-14T05:10:01;21.80;;;11.15;;
73585;SDS011;61865;50.232;18.614;2023-06-14T05:12:24;22.15;;;13.18;;
73585;SDS011;61865;50.232;18.614;2023-06-14T05:14:46;22.20;;;13.18;;
73585;SDS011;61865;50.232;18.614;2023-06-14T05:17:10;22.88;;;12.88;;
73585;SDS011;61865;50.232;18.614;2023-06-14T05:19:32;22.10;;;12.57;;
73585;SDS011;61865;50.232;18.614;2023-06-14T05:21:56;26.60;;;13.93;;
73585;SDS011;61865;50.232;18.614;2023-06-14T05:24:19;27.55;;;13.88;;
73585;SDS011;61865;50.232;18.614;2023-06-14T05:26:42;26.08;;;14.73;;
73585;SDS011;61865;50.232;18.614;2023-06-14T05:29:04;31.10;;;13.35;;
73585;SDS011;61865;50.232;18.614;2023-06-14T05:31:27;26.30;;;13.55;;
73585;SDS011;61865;50.232;18.614;2023-06-14T05:33:51;27.55;;;13.77;;
73585;SDS011;61865;50.232;18.614;2023-06-14T05:36:13;27.77;;;13.10;;
73585;SDS011;61865;50.232;18.614;2023-06-14T05:38:35;24.63;;;13.38;;
73585;SDS011;61865;50.232;18.614;2023-06-14T05:40:58;27.65;;;14.18;;
73585;SDS011;61865;50.232;18.614;2023-06-14T05:43:20;29.35;;;13.75;;
73585;SDS011;61865;50.232;18.614;2023-06-14T05:45:43;28.50;;;13.18;;
73585;SDS011;61865;50.232;18.614;2023-06-14T05:48:05;27.92;;;14.00;;
73585;SDS011;61865;50.232;18.614;2023-06-14T05:50:29;20.27;;;11.60;;
73585;SDS011;61865;50.232;18.614;2023-06-14T05:52:51;32.17;;;13.05;;
73585;SDS011;61865;50.232;18.614;2023-06-14T05:55:15;24.40;;;12.90;;
73585;SDS011;61865;50.232;18.614;2023-06-14T05:57:40;25.25;;;12.70;;
73585;SDS011;61865;50.232;18.614;2023-06-14T06:00:06;26.80;;;13.77;;
73585;SDS011;61865;50.232;18.614;2023-06-14T06:02:31;23.15;;;12.57;;
73585;SDS011;61865;50.232;18.614;2023-06-14T06:04:56;18.27;;;11.45;;
73585;SDS011;61865;50.232;18.614;2023-06-14T06:07:19;21.65;;;12.10;;
73585;SDS011;61865;50.232;18.614;2023-06-14T06:09:43;21.42;;;12.82;;
73585;SDS011;61865;50.232;18.614;2023-06-14T06:12:06;25.00;;;13.70;;
73585;SDS011;61865;50.232;18.614;2023-06-14T06:14:29;19.58;;;11.63;;
73585;SDS011;61865;50.232;18.614;2023-06-14T06:16:51;27.13;;;14.48;;
73585;SDS011;61865;50.232;18.614;2023-06-14T06:19:13;21.75;;;13.23;;
73585;SDS011;61865;50.232;18.614;2023-06-14T06:21:36;25.10;;;13.50;;
73585;SDS011;61865;50.232;18.614;2023-06-14T06:23:59;21.13;;;12.95;;
73585;SDS011;61865;50.232;18.614;2023-06-14T06:26:25;22.52;;;12.85;;
73585;SDS011;61865;50.232;18.614;2023-06-14T06:28:51;21.98;;;12.88;;
73585;SDS011;61865;50.232;18.614;2023-06-14T06:31:13;19.92;;;12.55;;
73585;SDS011;61865;50.232;18.614;2023-06-14T06:33:35;21.73;;;12.70;;
73585;SDS011;61865;50.232;18.614;2023-06-14T06:35:59;22.83;;;12.30;;
73585;SDS011;61865;50.232;18.614;2023-06-14T06:38:22;20.42;;;12.85;;
73585;SDS011;61865;50.232;18.614;2023-06-14T06:40:46;23.55;;;12.32;;
73585;SDS011;61865;50.232;18.614;2023-06-14T06:43:08;18.88;;;12.93;;
73585;SDS011;61865;50.232;18.614;2023-06-14T06:45:33;18.58;;;11.32;;
73585;SDS011;61865;50.232;18.614;2023-06-14T06:47:55;20.15;;;11.30;;
73585;SDS011;61865;50.232;18.614;2023-06-14T06:50:18;21.15;;;11.02;;
73585;SDS011;61865;50.232;18.614;2023-06-14T06:52:43;22.83;;;12.00;;
73585;SDS011;61865;50.232;18.614;2023-06-14T06:55:06;18.77;;;10.82;;
73585;SDS011;61865;50.232;18.614;2023-06-14T06:57:30;19.02;;;10.88;;
73585;SDS011;61865;50.232;18.614;2023-06-14T06:59:52;20.05;;;11.52;;
73585;SDS011;61865;50.232;18.614;2023-06-14T07:02:15;17.45;;;10.70;;
73585;SDS011;61865;50.232;18.614;2023-06-14T07:04:37;17.67;;;9.88;;
73585;SDS011;61865;50.232;18.614;2023-06-14T07:07:00;20.08;;;10.70;;
73585;SDS011;61865;50.232;18.614;2023-06-14T07:09:25;17.10;;;9.98;;
73585;SDS011;61865;50.232;18.614;2023-06-14T07:11:47;19.33;;;10.93;;
73585;SDS011;61865;50.232;18.614;2023-06-14T07:14:11;20.55;;;12.65;;
73585;SDS011;61865;50.232;18.614;2023-06-14T07:16:33;18.65;;;10.90;;
73585;SDS011;61865;50.232;18.614;2023-06-14T07:18:56;19.00;;;10.88;;
73585;SDS011;61865;50.232;18.614;2023-06-14T07:21:18;22.88;;;11.48;;
73585;SDS011;61865;50.232;18.614;2023-06-14T07:23:41;14.90;;;10.73;;
73585;SDS011;61865;50.232;18.614;2023-06-14T07:26:03;19.35;;;12.02;;
73585;SDS011;61865;50.232;18.614;2023-06-14T07:28:25;19.58;;;11.02;;
73585;SDS011;61865;50.232;18.614;2023-06-14T07:30:49;20.35;;;11.07;;
73585;SDS011;61865;50.232;18.614;2023-06-14T07:33:11;20.90;;;10.55;;
73585;SDS011;61865;50.232;18.614;2023-06-14T07:35:34;21.98;;;10.73;;
73585;SDS011;61865;50.232;18.614;2023-06-14T07:37:56;16.15;;;11.25;;
73585;SDS011;61865;50.232;18.614;2023-06-14T07:40:18;20.83;;;11.68;;
73585;SDS011;61865;50.232;18.614;2023-06-14T07:42:41;19.52;;;10.77;;
73585;SDS011;61865;50.232;18.614;2023-06-14T07:45:04;20.40;;;11.57;;
73585;SDS011;61865;50.232;18.614;2023-06-14T07:47:28;18.70;;;11.05;;
73585;SDS011;61865;50.232;18.614;2023-06-14T07:49:50;17.80;;;11.20;;
73585;SDS011;61865;50.232;18.614;2023-06-14T07:52:12;15.55;;;9.85;;
73585;SDS011;61865;50.232;18.614;2023-06-14T07:54:35;13.98;;;10.15;;
73585;SDS011;61865;50.232;18.614;2023-06-14T07:56:57;17.23;;;10.18;;
73585;SDS011;61865;50.232;18.614;2023-06-14T07:59:20;13.68;;;9.90;;
73585;SDS011;61865;50.232;18.614;2023-06-14T08:01:43;15.45;;;9.35;;
73585;SDS011;61865;50.232;18.614;2023-06-14T08:04:11;15.45;;;9.10;;
73585;SDS011;61865;50.232;18.614;2023-06-14T08:06:34;16.15;;;9.82;;
73585;SDS011;61865;50.232;18.614;2023-06-14T08:08:56;13.82;;;8.88;;
73585;SDS011;61865;50.232;18.614;2023-06-14T08:11:19;15.02;;;8.52;;
73585;SDS011;61865;50.232;18.614;2023-06-14T08:13:41;12.02;;;8.35;;
73585;SDS011;61865;50.232;18.614;2023-06-14T08:16:04;13.30;;;9.27;;
73585;SDS011;61865;50.232;18.614;2023-06-14T08:18:26;13.45;;;9.00;;
73585;SDS011;61865;50.232;18.614;2023-06-14T08:20:51;15.55;;;9.10;;
73585;SDS011;61865;50.232;18.614;2023-06-14T08:23:17;15.13;;;9.10;;
73585;SDS011;61865;50.232;18.614;2023-06-14T08:25:41;14.48;;;8.98;;
73585;SDS011;61865;50.232;18.614;2023-06-14T08:28:03;13.80;;;9.00;;
73585;SDS011;61865;50.232;18.614;2023-06-14T08:30:27;13.52;;;9.48;;
73585;SDS011;61865;50.232;18.614;2023-06-14T08:32:50;14.95;;;9.25;;
73585;SDS011;61865;50.232;18.614;2023-06-14T08:35:15;16.20;;;8.52;;
73585;SDS011;61865;50.232;18.614;2023-06-14T08:37:42;13.73;;;8.05;;
73585;SDS011;61865;50.232;18.614;2023-06-14T08:40:06;12.52;;;8.25;;
73585;SDS011;61865;50.232;18.614;2023-06-14T08:42:29;12.02;;;8.85;;
73585;SDS011;61865;50.232;18.614;2023-06-14T08:44:52;11.30;;;7.78;;
73585;SDS011;61865;50.232;18.614;2023-06-14T08:47:14;11.35;;;7.88;;
73585;SDS011;61865;50.232;18.614;2023-06-14T08:49:38;10.63;;;7.90;;
73585;SDS011;61865;50.232;18.614;2023-06-14T08:52:05;12.15;;;8.18;;
73585;SDS011;61865;50.232;18.614;2023-06-14T08:54:32;10.73;;;7.60;;
73585;SDS011;61865;50.232;18.614;2023-06-14T08:56:56;16.15;;;8.77;;
73585;SDS011;61865;50.232;18.614;2023-06-14T08:59:18;12.63;;;8.63;;
73585;SDS011;61865;50.232;18.614;2023-06-14T09:01:41;13.95;;;8.55;;
73585;SDS011;61865;50.232;18.614;2023-06-14T09:04:05;11.05;;;8.23;;
73585;SDS011;61865;50.232;18.614;2023-06-14T09:06:28;13.32;;;9.95;;
73585;SDS011;61865;50.232;18.614;2023-06-14T09:08:50;17.98;;;9.52;;
73585;SDS011;61865;50.232;18.614;2023-06-14T09:11:16;18.35;;;9.98;;
73585;SDS011;61865;50.232;18.614;2023-06-14T09:13:39;13.73;;;10.27;;
73585;SDS011;61865;50.232;18.614;2023-06-14T09:16:01;14.20;;;10.00;;
73585;SDS011;61865;50.232;18.614;2023-06-14T09:18:29;12.55;;;9.65;;
73585;SDS011;61865;50.232;18.614;2023-06-14T09:20:55;14.07;;;9.60;;
73585;SDS011;61865;50.232;18.614;2023-06-14T09:23:20;14.38;;;9.45;;
73585;SDS011;61865;50.232;18.614;2023-06-14T09:25:43;14.75;;;11.00;;
73585;SDS011;61865;50.232;18.614;2023-06-14T09:28:07;11.15;;;9.15;;
73585;SDS011;61865;50.232;18.614;2023-06-14T09:30:30;14.82;;;9.45;;
73585;SDS011;61865;50.232;18.614;2023-06-14T09:32:52;13.95;;;10.38;;
73585;SDS011;61865;50.232;18.614;2023-06-14T09:35:15;6.32;;;4.30;;
73585;SDS011;61865;50.232;18.614;2023-06-14T09:37:40;6.93;;;4.25;;
73585;SDS011;61865;50.232;18.614;2023-06-14T09:40:02;6.55;;;4.20;;
73585;SDS011;61865;50.232;18.614;2023-06-14T09:42:25;8.15;;;3.38;;
73585;SDS011;61865;50.232;18.614;2023-06-14T09:44:49;5.43;;;3.60;;
73585;SDS011;61865;50.232;18.614;2023-06-14T09:47:12;5.07;;;3.40;;
73585;SDS011;61865;50.232;18.614;2023-06-14T09:49:34;9.93;;;4.28;;
73585;SDS011;61865;50.232;18.614;2023-06-14T09:51:56;6.03;;;4.25;;
73585;SDS011;61865;50.232;18.614;2023-06-14T09:54:20;4.75;;;3.58;;
73585;SDS011;61865;50.232;18.614;2023-06-14T09:56:45;5.38;;;3.53;;
73585;SDS011;61865;50.232;18.614;2023-06-14T09:59:09;5.20;;;4.20;;
73585;SDS011;61865;50.232;18.614;2023-06-14T10:01:32;7.18;;;2.83;;
73585;SDS011;61865;50.232;18.614;2023-06-14T10:03:58;5.05;;;3.40;;
73585;SDS011;61865;50.232;18.614;2023-06-14T10:06:26;5.32;;;3.45;;
73585;SDS011;61865;50.232;18.614;2023-06-14T10:08:50;8.05;;;3.10;;
73585;SDS011;61865;50.232;18.614;2023-06-14T10:11:12;6.90;;;3.10;;
73585;SDS011;61865;50.232;18.614;2023-06-14T10:13:35;9.13;;;3.80;;
73585;SDS011;61865;50.232;18.614;2023-06-14T10:15:58;5.93;;;3.58;;
73585;SDS011;61865;50.232;18.614;2023-06-14T10:18:28;4.97;;;3.42;;
73585;SDS011;61865;50.232;18.614;2023-06-14T10:20:55;4.20;;;2.93;;
73585;SDS011;61865;50.232;18.614;2023-06-14T10:23:20;4.93;;;3.15;;
73585;SDS011;61865;50.232;18.614;2023-06-14T10:25:43;6.05;;;3.88;;
73585;SDS011;61865;50.232;18.614;2023-06-14T10:28:14;6.13;;;3.72;;
73585;SDS011;61865;50.232;18.614;2023-06-14T10:30:37;4.72;;;3.13;;
73585;SDS011;61865;50.232;18.614;2023-06-14T10:33:05;7.55;;;3.47;;
73585;SDS011;61865;50.232;18.614;2023-06-14T10:35:29;5.13;;;3.42;;
73585;SDS011;61865;50.232;18.614;2023-06-14T10:37:51;7.78;;;3.78;;
73585;SDS011;61865;50.232;18.614;2023-06-14T10:40:23;7.85;;;3.75;;
73585;SDS011;61865;50.232;18.614;2023-06-14T10:42:51;4.05;;;2.90;;
73585;SDS011;61865;50.232;18.614;2023-06-14T10:45:14;3.30;;;2.40;;
73585;SDS011;61865;50.232;18.614;2023-06-14T10:47:36;4.55;;;3.10;;
73585;SDS011;61865;50.232;18.614;2023-06-14T10:50:03;4.90;;;2.97;;
73585;SDS011;61865;50.232;18.614;2023-06-14T10:52:28;4.22;;;2.70;;
73585;SDS011;61865;50.232;18.614;2023-06-14T10:54:59;4.70;;;3.10;;
73585;SDS011;61865;50.232;18.614;2023-06-14T10:57:24;3.83;;;2.88;;
73585;SDS011;61865;50.232;18.614;2023-06-14T10:59:46;6.80;;;3.33;;
73585;SDS011;61865;50.232;18.614;2023-06-14T11:02:14;8.40;;;3.40;;
73585;SDS011;61865;50.232;18.614;2023-06-14T11:04:46;4.78;;;3.13;;
73585;SDS011;61865;50.232;18.614;2023-06-14T11:07:19;4.75;;;3.22;;
73585;SDS011;61865;50.232;18.614;2023-06-14T11:09:59;5.63;;;3.15;;
73585;SDS011;61865;50.232;18.614;2023-06-14T11:12:27;4.25;;;3.35;;
73585;SDS011;61865;50.232;18.614;2023-06-14T11:14:50;4.32;;;3.40;;
73585;SDS011;61865;50.232;18.614;2023-06-14T11:17:12;7.22;;;4.55;;
73585;SDS011;61865;50.232;18.614;2023-06-14T11:19:34;6.70;;;4.40;;
73585;SDS011;61865;50.232;18.614;2023-06-14T11:21:57;6.63;;;4.45;;
73585;SDS011;61865;50.232;18.614;2023-06-14T11:24:20;6.20;;;4.25;;
73585;SDS011;61865;50.232;18.614;2023-06-14T11:26:43;7.78;;;4.68;;
73585;SDS011;61865;50.232;18.614;2023-06-14T11:29:06;10.07;;;5.10;;
73585;SDS011;61865;50.232;18.614;2023-06-14T11:31:28;6.97;;;4.65;;
73585;SDS011;61865;50.232;18.614;2023-06-14T11:33:51;5.82;;;3.83;;
73585;SDS011;61865;50.232;18.614;2023-06-14T11:36:15;10.73;;;5.07;;
73585;SDS011;61865;50.232;18.614;2023-06-14T11:38:37;5.05;;;3.17;;
73585;SDS011;61865;50.232;18.614;2023-06-14T11:41:00;6.38;;;3.65;;
73585;SDS011;61865;50.232;18.614;2023-06-14T11:43:26;5.95;;;3.72;;
73585;SDS011;61865;50.232;18.614;2023-06-14T11:45:49;4.95;;;3.58;;
73585;SDS011;61865;50.232;18.614;2023-06-14T11:48:11;4.50;;;3.05;;
73585;SDS011;61865;50.232;18.614;2023-06-14T11:50:37;4.90;;;3.10;;
73585;SDS011;61865;50.232;18.614;2023-06-14T11:53:03;5.00;;;3.15;;
73585;SDS011;61865;50.232;18.614;2023-06-14T11:55:27;4.20;;;2.78;;
73585;SDS011;61865;50.232;18.614;2023-06-14T11:57:49;5.05;;;3.40;;
73585;SDS011;61865;50.232;18.614;2023-06-14T12:00:14;5.32;;;3.55;;
73585;SDS011;61865;50.232;18.614;2023-06-14T12:02:37;8.38;;;3.78;;
73585;SDS011;61865;50.232;18.614;2023-06-14T12:05:04;3.97;;;2.90;;
73585;SDS011;61865;50.232;18.614;2023-06-14T12:07:28;5.50;;;3.30;;
73585;SDS011;61865;50.232;18.614;2023-06-14T12:10:05;6.80;;;3.55;;
73585;SDS011;61865;50.232;18.614;2023-06-14T12:12:28;4.47;;;3.28;;
73585;SDS011;61865;50.232;18.614;2023-06-14T12:14:50;6.28;;;4.55;;
73585;SDS011;61865;50.232;18.614;2023-06-14T12:17:16;5.82;;;4.80;;
73585;SDS011;61865;50.232;18.614;2023-06-14T12:19:41;6.78;;;4.72;;
73585;SDS011;61865;50.232;18.614;2023-06-14T12:22:04;8.45;;;5.22;;
73585;SDS011;61865;50.232;18.614;2023-06-14T12:24:27;9.15;;;5.60;;
73585;SDS011;61865;50.232;18.614;2023-06-14T12:26:51;10.63;;;5.00;;
73585;SDS011;61865;50.232;18.614;2023-06-14T12:29:13;9.23;;;5.70;;
73585;SDS011;61865;50.232;18.614;2023-06-14T12:31:36;11.15;;;5.45;;
73585;SDS011;61865;50.232;18.614;2023-06-14T12:34:00;7.32;;;4.82;;
73585;SDS011;61865;50.232;18.614;2023-06-14T12:36:22;8.52;;;4.75;;
73585;SDS011;61865;50.232;18.614;2023-06-14T12:38:45;10.30;;;4.60;;
73585;SDS011;61865;50.232;18.614;2023-06-14T12:41:08;6.80;;;4.85;;
73585;SDS011;61865;50.232;18.614;2023-06-14T12:43:30;9.18;;;4.70;;
73585;SDS011;61865;50.232;18.614;2023-06-14T12:45:52;9.70;;;5.50;;
73585;SDS011;61865;50.232;18.614;2023-06-14T12:48:15;9.25;;;5.07;;
73585;SDS011;61865;50.232;18.614;2023-06-14T12:50:38;5.90;;;4.32;;
73585;SDS011;61865;50.232;18.614;2023-06-14T12:53:01;7.22;;;4.13;;
73585;SDS011;61865;50.232;18.614;2023-06-14T12:55:23;9.45;;;5.25;;
73585;SDS011;61865;50.232;18.614;2023-06-14T12:57:46;7.85;;;4.85;;
73585;SDS011;61865;50.232;18.614;2023-06-14T13:00:09;7.57;;;4.95;;
73585;SDS011;61865;50.232;18.614;2023-06-14T13:02:33;6.93;;;4.57;;
73585;SDS011;61865;50.232;18.614;2023-06-14T13:04:55;15.48;;;4.78;;
73585;SDS011;61865;50.232;18.614;2023-06-14T13:07:20;10.40;;;5.32;;
73585;SDS011;61865;50.232;18.614;2023-06-14T13:09:42;8.38;;;4.65;;
73585;SDS011;61865;50.232;18.614;2023-06-14T13:12:05;4.80;;;3.42;;
73585;SDS011;61865;50.232;18.614;2023-06-14T13:14:28;6.15;;;3.47;;
73585;SDS011;61865;50.232;18.614;2023-06-14T13:16:50;7.57;;;4.25;;
73585;SDS011;61865;50.232;18.614;2023-06-14T13:19:13;5.82;;;3.70;;
73585;SDS011;61865;50.232;18.614;2023-06-14T13:21:35;5.50;;;3.33;;
73585;SDS011;61865;50.232;18.614;2023-06-14T13:23:59;6.63;;;3.80;;
73585;SDS011;61865;50.232;18.614;2023-06-14T13:26:21;9.13;;;4.50;;
73585;SDS011;61865;50.232;18.614;2023-06-14T13:28:43;5.75;;;3.33;;
73585;SDS011;61865;50.232;18.614;2023-06-14T13:31:06;6.20;;;3.28;;
73585;SDS011;61865;50.232;18.614;2023-06-14T13:33:28;7.65;;;4.25;;
73585;SDS011;61865;50.232;18.614;2023-06-14T13:35:50;6.53;;;3.97;;
73585;SDS011;61865;50.232;18.614;2023-06-14T13:38:13;6.97;;;4.22;;
73585;SDS011;61865;50.232;18.614;2023-06-14T13:40:37;6.00;;;3.30;;
73585;SDS011;61865;50.232;18.614;2023-06-14T13:42:59;7.90;;;3.60;;
73585;SDS011;61865;50.232;18.614;2023-06-14T13:45:22;7.05;;;3.40;;
73585;SDS011;61865;50.232;18.614;2023-06-14T13:47:45;7.40;;;3.33;;
73585;SDS011;61865;50.232;18.614;2023-06-14T13:50:11;6.20;;;3.03;;
73585;SDS011;61865;50.232;18.614;2023-06-14T13:52:34;5.70;;;3.42;;
73585;SDS011;61865;50.232;18.614;2023-06-14T13:54:56;5.43;;;3.05;;
73585;SDS011;61865;50.232;18.614;2023-06-14T13:57:21;6.32;;;3.63;;
73585;SDS011;61865;50.232;18.614;2023-06-14T13:59:43;5.35;;;2.85;;